createdAt,value
2017-11-12T00:00:15.258Z,7.9
2017-11-12T00:01:17.679Z,7.9
2017-11-12T00:02:20.096Z,7.9
2017-11-12T00:03:22.524Z,7.9
2017-11-12T00:04:24.950Z,7.9
2017-11-12T00:05:27.366Z,7.9
2017-11-12T00:06:29.780Z,7.8
2017-11-12T00:07:32.206Z,7.8
2017-11-12T00:08:34.630Z,7.9
2017-11-12T00:09:37.055Z,7.8
2017-11-12T00:10:39.471Z,7.9
2017-11-12T00:11:41.906Z,7.9
2017-11-12T00:12:44.341Z,7.9
2017-11-12T00:13:46.805Z,7.9
2017-11-12T00:14:49.227Z,7.9
2017-11-12T00:15:51.661Z,7.9
2017-11-12T00:16:54.988Z,7.9
2017-11-12T00:17:57.839Z,7.9
2017-11-12T00:19:00.272Z,7.9
2017-11-12T00:20:02.698Z,7.9
2017-11-12T00:21:05.124Z,7.9
2017-11-12T00:22:09.660Z,7.9
2017-11-12T00:23:12.968Z,7.9
2017-11-12T00:24:15.409Z,7.9
2017-11-12T00:25:19.254Z,7.9
2017-11-12T00:26:22.903Z,7.9
2017-11-12T00:27:25.314Z,7.9
2017-11-12T00:28:27.751Z,7.9
2017-11-12T00:29:30.196Z,7.9
2017-11-12T00:30:33.795Z,7.9
2017-11-12T00:31:36.263Z,7.9
2017-11-12T00:32:38.692Z,7.9
2017-11-12T00:33:41.117Z,7.9
2017-11-12T00:34:43.547Z,7.9
2017-11-12T00:35:45.992Z,7.9
2017-11-12T00:36:48.435Z,7.9
2017-11-12T00:37:50.862Z,7.9
2017-11-12T00:38:53.324Z,7.9
2017-11-12T00:39:55.810Z,7.9
2017-11-12T00:40:58.253Z,7.9
2017-11-12T00:42:00.671Z,7.8
2017-11-12T00:43:03.466Z,7.9
2017-11-12T00:44:05.910Z,7.8
2017-11-12T00:45:08.349Z,7.8
2017-11-12T00:46:10.790Z,7.8
2017-11-12T00:47:13.214Z,7.8
2017-11-12T00:48:15.696Z,7.8
2017-11-12T00:49:18.923Z,7.9
2017-11-12T00:50:21.506Z,7.9
2017-11-12T00:51:24.187Z,7.9
2017-11-12T00:52:26.643Z,7.9
2017-11-12T00:53:29.067Z,7.9
2017-11-12T00:54:31.507Z,7.9
2017-11-12T00:55:35.047Z,7.9
2017-11-12T00:56:38.164Z,7.9
2017-11-12T00:57:40.773Z,7.9
2017-11-12T00:58:43.309Z,7.9
2017-11-12T00:59:45.894Z,7.9
2017-11-12T01:00:48.782Z,7.9
2017-11-12T01:01:51.265Z,7.9
2017-11-12T01:02:54.069Z,7.8
2017-11-12T01:03:57.500Z,7.8
2017-11-12T01:05:00.008Z,7.8
2017-11-12T01:06:02.775Z,7.8
2017-11-12T01:07:05.579Z,7.9
2017-11-12T01:08:08.031Z,7.8
2017-11-12T01:09:10.489Z,7.8
2017-11-12T01:10:12.914Z,7.8
2017-11-12T01:11:15.375Z,7.8
2017-11-12T01:12:17.937Z,7.8
2017-11-12T01:13:20.381Z,7.8
2017-11-12T01:14:23.161Z,7.8
2017-11-12T01:15:25.604Z,7.8
2017-11-12T01:16:28.055Z,7.8
2017-11-12T01:17:30.475Z,7.9
2017-11-12T01:18:32.921Z,7.9
2017-11-12T01:19:35.349Z,7.9
2017-11-12T01:20:37.775Z,7.9
2017-11-12T01:21:40.196Z,7.9
2017-11-12T01:22:42.602Z,7.9
2017-11-12T01:23:45.044Z,7.9
2017-11-12T01:24:48.229Z,7.9
2017-11-12T01:25:50.655Z,7.9
2017-11-12T01:26:53.075Z,8
2017-11-12T01:27:55.491Z,8
2017-11-12T01:28:57.914Z,8
2017-11-12T01:30:00.371Z,8
2017-11-12T01:31:02.806Z,8
2017-11-12T01:32:05.238Z,8
2017-11-12T01:33:07.655Z,8
2017-11-12T01:34:10.074Z,8
2017-11-12T01:35:12.495Z,7.9
2017-11-12T01:36:15.282Z,8
2017-11-12T01:37:17.692Z,7.9
2017-11-12T01:38:20.114Z,8
2017-11-12T01:39:22.533Z,7.9
2017-11-12T01:40:24.981Z,7.9
2017-11-12T01:41:27.417Z,7.9
2017-11-12T01:42:30.186Z,8
2017-11-12T01:43:32.618Z,7.9
2017-11-12T01:44:35.048Z,7.9
2017-11-12T01:45:37.828Z,8
2017-11-12T01:46:40.267Z,8
2017-11-12T01:47:42.691Z,8
2017-11-12T01:48:45.475Z,8
2017-11-12T01:49:47.900Z,7.9
2017-11-12T01:50:50.328Z,7.9
2017-11-12T01:51:52.764Z,7.9
2017-11-12T01:52:55.566Z,8
2017-11-12T01:53:58.346Z,8
2017-11-12T01:55:00.778Z,8
2017-11-12T01:56:03.235Z,8
2017-11-12T01:57:05.648Z,8
2017-11-12T01:58:08.094Z,8
2017-11-12T01:59:10.516Z,8
2017-11-12T02:00:12.952Z,8
2017-11-12T02:01:15.376Z,8
2017-11-12T02:02:17.789Z,8
2017-11-12T02:03:20.231Z,8
2017-11-12T02:04:22.653Z,8
2017-11-12T02:05:25.476Z,8
2017-11-12T02:06:27.896Z,8
2017-11-12T02:07:30.313Z,8
2017-11-12T02:08:32.734Z,8
2017-11-12T02:09:35.163Z,8
2017-11-12T02:10:37.577Z,8
2017-11-12T02:11:40.003Z,8
2017-11-12T02:12:42.428Z,8
2017-11-12T02:13:44.864Z,8
2017-11-12T02:14:47.301Z,8
2017-11-12T02:15:49.711Z,8
2017-11-12T02:16:52.494Z,8
2017-11-12T02:17:54.919Z,8
2017-11-12T02:18:57.336Z,7.9
2017-11-12T02:19:59.760Z,8
2017-11-12T02:21:02.186Z,7.9
2017-11-12T02:22:04.607Z,8
2017-11-12T02:23:07.033Z,8
2017-11-12T02:24:09.439Z,8
2017-11-12T02:25:11.858Z,8
2017-11-12T02:26:14.273Z,8
2017-11-12T02:27:17.088Z,8
2017-11-12T02:28:19.499Z,7.9
2017-11-12T02:29:21.917Z,7.9
2017-11-12T02:30:24.334Z,8
2017-11-12T02:31:26.758Z,7.9
2017-11-12T02:32:29.540Z,7.9
2017-11-12T02:33:31.958Z,7.9
2017-11-12T02:34:34.738Z,7.9
2017-11-12T02:35:37.165Z,7.9
2017-11-12T02:36:40.327Z,7.9
2017-11-12T02:37:42.764Z,7.9
2017-11-12T02:38:45.540Z,7.9
2017-11-12T02:39:47.964Z,7.9
2017-11-12T02:40:50.738Z,7.9
2017-11-12T02:41:53.156Z,7.9
2017-11-12T02:42:55.579Z,7.9
2017-11-12T02:43:58.007Z,7.9
2017-11-12T02:45:00.768Z,7.9
2017-11-12T02:46:03.183Z,7.9
2017-11-12T02:47:05.602Z,7.9
2017-11-12T02:48:08.040Z,7.9
2017-11-12T02:49:10.464Z,7.9
2017-11-12T02:50:12.890Z,7.9
2017-11-12T02:51:15.679Z,7.8
2017-11-12T02:52:18.453Z,7.9
2017-11-12T02:53:21.257Z,7.8
2017-11-12T02:54:24.092Z,7.8
2017-11-12T02:55:26.502Z,7.9
2017-11-12T02:56:28.922Z,7.8
2017-11-12T02:57:31.724Z,7.8
2017-11-12T02:58:34.142Z,7.8
2017-11-12T02:59:36.577Z,7.8
2017-11-12T03:00:38.992Z,7.8
2017-11-12T03:01:41.411Z,7.8
2017-11-12T03:02:44.202Z,7.8
2017-11-12T03:03:46.660Z,7.8
2017-11-12T03:04:49.066Z,7.8
2017-11-12T03:05:51.486Z,7.8
2017-11-12T03:06:53.915Z,7.8
2017-11-12T03:07:56.341Z,7.8
2017-11-12T03:08:58.764Z,7.8
2017-11-12T03:10:01.169Z,7.8
2017-11-12T03:11:03.591Z,7.7
2017-11-12T03:12:06.022Z,7.8
2017-11-12T03:13:08.438Z,7.7
2017-11-12T03:14:10.842Z,7.7
2017-11-12T03:15:13.261Z,7.8
2017-11-12T03:16:15.679Z,7.8
2017-11-12T03:17:18.098Z,7.8
2017-11-12T03:18:20.523Z,7.8
2017-11-12T03:19:22.930Z,7.8
2017-11-12T03:20:25.700Z,7.8
2017-11-12T03:21:28.137Z,7.8
2017-11-12T03:22:30.909Z,7.8
2017-11-12T03:23:33.331Z,7.8
2017-11-12T03:24:35.756Z,7.8
2017-11-12T03:25:38.179Z,7.8
2017-11-12T03:26:40.611Z,7.8
2017-11-12T03:27:43.027Z,7.8
2017-11-12T03:28:45.455Z,7.8
2017-11-12T03:29:47.875Z,7.8
2017-11-12T03:30:50.306Z,7.8
2017-11-12T03:31:52.724Z,7.8
2017-11-12T03:32:55.147Z,7.8
2017-11-12T03:33:57.559Z,7.8
2017-11-12T03:34:59.976Z,7.8
2017-11-12T03:36:02.405Z,7.8
2017-11-12T03:37:04.822Z,7.8
2017-11-12T03:38:07.237Z,7.8
2017-11-12T03:39:10.013Z,7.8
2017-11-12T03:40:12.426Z,7.8
2017-11-12T03:41:14.849Z,7.8
2017-11-12T03:42:17.267Z,7.8
2017-11-12T03:43:19.686Z,7.8
2017-11-12T03:44:22.103Z,7.8
2017-11-12T03:45:24.520Z,7.8
2017-11-12T03:46:26.930Z,7.8
2017-11-12T03:47:29.355Z,7.8
2017-11-12T03:48:31.769Z,7.8
2017-11-12T03:49:34.186Z,7.8
2017-11-12T03:50:36.608Z,7.8
2017-11-12T03:51:39.027Z,7.8
2017-11-12T03:52:41.452Z,7.8
2017-11-12T03:53:43.879Z,7.8
2017-11-12T03:54:46.300Z,7.8
2017-11-12T03:55:49.086Z,7.8
2017-11-12T03:56:51.503Z,7.8
2017-11-12T03:57:54.298Z,7.8
2017-11-12T03:58:56.703Z,7.8
2017-11-12T03:59:59.130Z,7.8
2017-11-12T04:01:01.899Z,7.8
2017-11-12T04:02:04.327Z,7.8
2017-11-12T04:03:06.740Z,7.8
2017-11-12T04:04:09.155Z,7.8
2017-11-12T04:05:11.575Z,7.8
2017-11-12T04:06:14.004Z,7.8
2017-11-12T04:07:16.783Z,7.8
2017-11-12T04:08:19.212Z,7.8
2017-11-12T04:09:21.612Z,7.8
2017-11-12T04:10:24.046Z,7.8
2017-11-12T04:11:26.467Z,7.8
2017-11-12T04:12:29.248Z,7.8
2017-11-12T04:13:31.685Z,7.8
2017-11-12T04:14:34.475Z,7.8
2017-11-12T04:15:36.893Z,7.8
2017-11-12T04:16:39.316Z,7.8
2017-11-12T04:17:41.720Z,7.8
2017-11-12T04:18:44.146Z,7.8
2017-11-12T04:19:46.567Z,7.8
2017-11-12T04:20:48.988Z,7.8
2017-11-12T04:21:51.404Z,7.8
2017-11-12T04:22:53.823Z,7.8
2017-11-12T04:23:56.231Z,7.8
2017-11-12T04:24:58.659Z,7.8
2017-11-12T04:26:01.429Z,7.8
2017-11-12T04:27:03.845Z,7.8
2017-11-12T04:28:06.270Z,7.8
2017-11-12T04:29:08.697Z,7.8
2017-11-12T04:30:11.116Z,7.8
2017-11-12T04:31:13.892Z,7.8
2017-11-12T04:32:16.332Z,7.8
2017-11-12T04:33:18.735Z,7.8
2017-11-12T04:34:21.511Z,7.8
2017-11-12T04:35:23.939Z,7.8
2017-11-12T04:36:26.705Z,7.8
2017-11-12T04:37:29.133Z,7.9
2017-11-12T04:38:31.559Z,7.9
2017-11-12T04:39:33.987Z,7.9
2017-11-12T04:40:36.397Z,7.9
2017-11-12T04:41:38.820Z,7.9
2017-11-12T04:42:41.232Z,7.9
2017-11-12T04:43:44.021Z,7.9
2017-11-12T04:44:46.820Z,7.9
2017-11-12T04:45:49.244Z,7.9
2017-11-12T04:46:51.655Z,7.9
2017-11-12T04:47:54.082Z,7.9
2017-11-12T04:48:56.494Z,7.9
2017-11-12T04:49:58.922Z,7.9
2017-11-12T04:51:01.338Z,7.9
2017-11-12T04:52:04.120Z,7.9
2017-11-12T04:53:06.538Z,7.9
2017-11-12T04:54:08.953Z,7.8
2017-11-12T04:55:11.381Z,7.9
2017-11-12T04:56:13.797Z,7.8
2017-11-12T04:57:16.210Z,7.9
2017-11-12T04:58:18.636Z,7.9
2017-11-12T04:59:21.061Z,7.9
2017-11-12T05:00:23.489Z,7.8
2017-11-12T05:01:25.892Z,7.9
2017-11-12T05:02:28.315Z,7.8
2017-11-12T05:03:30.754Z,7.8
2017-11-12T05:04:33.181Z,7.8
2017-11-12T05:05:35.959Z,7.8
2017-11-12T05:06:38.376Z,7.8
2017-11-12T05:07:40.796Z,7.8
2017-11-12T05:08:43.225Z,7.8
2017-11-12T05:09:45.645Z,7.8
2017-11-12T05:10:48.448Z,7.8
2017-11-12T05:11:50.869Z,7.8
2017-11-12T05:12:53.296Z,7.8
2017-11-12T05:13:56.072Z,7.8
2017-11-12T05:14:58.501Z,7.8
2017-11-12T05:16:00.913Z,7.8
2017-11-12T05:17:03.326Z,7.8
2017-11-12T05:18:05.749Z,7.8
2017-11-12T05:19:08.170Z,7.8
2017-11-12T05:20:10.590Z,7.8
2017-11-12T05:21:13.014Z,7.8
2017-11-12T05:22:15.433Z,7.8
2017-11-12T05:23:17.842Z,7.8
2017-11-12T05:24:20.264Z,7.8
2017-11-12T05:25:22.674Z,7.8
2017-11-12T05:26:25.123Z,7.7
2017-11-12T05:27:27.520Z,7.7
2017-11-12T05:28:29.926Z,7.7
2017-11-12T05:29:32.346Z,7.7
2017-11-12T05:30:34.768Z,7.7
2017-11-12T05:31:37.180Z,7.7
2017-11-12T05:32:39.611Z,7.7
2017-11-12T05:33:42.039Z,7.7
2017-11-12T05:34:44.460Z,7.7
2017-11-12T05:35:46.872Z,7.6
2017-11-12T05:36:49.301Z,7.7
2017-11-12T05:37:51.706Z,7.7
2017-11-12T05:38:54.121Z,7.7
2017-11-12T05:39:56.545Z,7.6
2017-11-12T05:40:58.974Z,7.6
2017-11-12T05:42:01.378Z,7.6
2017-11-12T05:43:03.810Z,7.7
2017-11-12T05:44:06.233Z,7.7
2017-11-12T05:45:08.667Z,7.7
2017-11-12T05:46:11.093Z,7.7
2017-11-12T05:47:13.498Z,7.7
2017-11-12T05:48:15.919Z,7.7
2017-11-12T05:49:18.345Z,7.7
2017-11-12T05:50:20.757Z,7.6
2017-11-12T05:51:23.533Z,7.7
2017-11-12T05:52:25.946Z,7.7
2017-11-12T05:53:28.356Z,7.7
2017-11-12T05:54:30.768Z,7.7
2017-11-12T05:55:33.541Z,7.7
2017-11-12T05:56:35.953Z,7.7
2017-11-12T05:57:38.379Z,7.7
2017-11-12T05:58:40.802Z,7.8
2017-11-12T05:59:43.236Z,7.7
2017-11-12T06:00:45.634Z,7.7
2017-11-12T06:01:48.057Z,7.7
2017-11-12T06:02:50.474Z,7.8
2017-11-12T06:03:52.897Z,7.8
2017-11-12T06:04:55.310Z,7.7
2017-11-12T06:05:58.090Z,7.7
2017-11-12T06:07:00.506Z,7.7
2017-11-12T06:08:03.288Z,7.8
2017-11-12T06:09:05.706Z,7.8
2017-11-12T06:10:08.134Z,7.8
2017-11-12T06:11:10.526Z,7.8
2017-11-12T06:12:12.941Z,7.8
2017-11-12T06:13:15.380Z,7.8
2017-11-12T06:14:17.797Z,7.7
2017-11-12T06:15:20.560Z,7.7
2017-11-12T06:16:23.010Z,7.7
2017-11-12T06:17:26.153Z,7.7
2017-11-12T06:18:28.570Z,7.7
2017-11-12T06:19:30.988Z,7.7
2017-11-12T06:20:33.392Z,7.7
2017-11-12T06:21:35.811Z,7.7
2017-11-12T06:22:38.246Z,7.7
2017-11-12T06:23:40.669Z,7.7
2017-11-12T06:24:43.078Z,7.7
2017-11-12T06:25:45.508Z,7.7
2017-11-12T06:26:47.924Z,7.7
2017-11-12T06:27:50.346Z,7.7
2017-11-12T06:28:53.120Z,7.7
2017-11-12T06:29:55.535Z,7.8
2017-11-12T06:30:57.967Z,7.7
2017-11-12T06:32:00.737Z,7.8
2017-11-12T06:33:03.154Z,7.8
2017-11-12T06:34:05.580Z,7.8
2017-11-12T06:35:07.997Z,7.8
2017-11-12T06:36:10.413Z,7.8
2017-11-12T06:37:12.833Z,7.8
2017-11-12T06:38:15.256Z,7.8
2017-11-12T06:39:17.672Z,7.8
2017-11-12T06:40:20.115Z,7.8
2017-11-12T06:41:22.552Z,7.8
2017-11-12T06:42:24.971Z,7.8
2017-11-12T06:43:27.395Z,7.8
2017-11-12T06:44:29.832Z,7.8
2017-11-12T06:45:32.239Z,7.8
2017-11-12T06:46:34.671Z,7.8
2017-11-12T06:47:37.081Z,7.8
2017-11-12T06:48:39.501Z,7.8
2017-11-12T06:49:41.920Z,7.8
2017-11-12T06:50:44.337Z,7.8
2017-11-12T06:51:46.754Z,7.8
2017-11-12T06:52:49.179Z,7.8
2017-11-12T06:53:51.597Z,7.8
2017-11-12T06:54:54.021Z,7.9
2017-11-12T06:55:56.444Z,7.9
2017-11-12T06:56:58.871Z,7.9
2017-11-12T06:58:01.313Z,7.9
2017-11-12T06:59:03.705Z,7.9
2017-11-12T07:00:06.492Z,7.9
2017-11-12T07:01:08.904Z,7.9
2017-11-12T07:02:11.324Z,7.9
2017-11-12T07:03:13.738Z,7.9
2017-11-12T07:04:16.151Z,7.9
2017-11-12T07:05:18.944Z,7.9
2017-11-12T07:06:21.364Z,8
2017-11-12T07:07:23.773Z,8
2017-11-12T07:08:26.193Z,8
2017-11-12T07:09:28.612Z,8
2017-11-12T07:10:31.019Z,8.1
2017-11-12T07:11:33.829Z,8.1
2017-11-12T07:12:36.243Z,8.1
2017-11-12T07:13:38.670Z,8.1
2017-11-12T07:14:41.083Z,8.1
2017-11-12T07:15:43.864Z,8.1
2017-11-12T07:16:46.279Z,8.1
2017-11-12T07:17:48.714Z,8.1
2017-11-12T07:18:51.120Z,8.2
2017-11-12T07:19:53.547Z,8.2
2017-11-12T07:20:55.961Z,8.2
2017-11-12T07:21:58.390Z,8.3
2017-11-12T07:23:00.808Z,8.3
2017-11-12T07:24:03.239Z,8.3
2017-11-12T07:25:05.659Z,8.4
2017-11-12T07:26:08.079Z,8.4
2017-11-12T07:27:10.498Z,8.4
2017-11-12T07:28:13.279Z,8.5
2017-11-12T07:29:15.698Z,8.5
2017-11-12T07:30:18.124Z,8.5
2017-11-12T07:31:20.889Z,8.6
2017-11-12T07:32:23.321Z,8.7
2017-11-12T07:33:25.756Z,8.7
2017-11-12T07:34:28.540Z,8.7
2017-11-12T07:35:30.962Z,8.8
2017-11-12T07:36:33.386Z,8.9
2017-11-12T07:37:35.809Z,8.9
2017-11-12T07:38:38.221Z,9
2017-11-12T07:39:40.642Z,9.1
2017-11-12T07:40:43.067Z,9.1
2017-11-12T07:41:45.849Z,9.2
2017-11-12T07:42:48.265Z,9.3
2017-11-12T07:43:51.044Z,9.3
2017-11-12T07:44:53.463Z,9.4
2017-11-12T07:45:55.897Z,9.5
2017-11-12T07:46:58.324Z,9.5
2017-11-12T07:48:00.740Z,9.6
2017-11-12T07:49:03.161Z,9.6
2017-11-12T07:50:05.593Z,9.7
2017-11-12T07:51:08.008Z,9.8
2017-11-12T07:52:10.428Z,9.8
2017-11-12T07:53:12.846Z,9.9
2017-11-12T07:54:15.271Z,9.9
2017-11-12T07:55:18.061Z,10
2017-11-12T07:56:20.484Z,9.9
2017-11-12T07:57:23.270Z,10
2017-11-12T07:58:25.684Z,10
2017-11-12T07:59:28.485Z,9.9
2017-11-12T08:00:30.903Z,10
2017-11-12T08:01:33.330Z,10
2017-11-12T08:02:35.749Z,10
2017-11-12T08:03:38.175Z,10
2017-11-12T08:04:40.614Z,10
2017-11-12T08:05:43.035Z,10
2017-11-12T08:06:45.462Z,10
2017-11-12T08:07:47.881Z,10
2017-11-12T08:08:50.666Z,9.9
2017-11-12T08:09:53.082Z,9.9
2017-11-12T08:10:55.511Z,9.9
2017-11-12T08:11:57.936Z,9.9
2017-11-12T08:13:00.363Z,9.9
2017-11-12T08:14:02.776Z,9.8
2017-11-12T08:15:05.202Z,9.8
2017-11-12T08:16:07.626Z,9.8
2017-11-12T08:17:10.047Z,9.8
2017-11-12T08:18:12.474Z,9.8
2017-11-12T08:19:14.887Z,9.8
2017-11-12T08:20:17.302Z,9.8
2017-11-12T08:21:19.736Z,9.8
2017-11-12T08:22:22.512Z,9.8
2017-11-12T08:23:24.949Z,9.7
2017-11-12T08:24:27.354Z,9.7
2017-11-12T08:25:29.780Z,9.7
2017-11-12T08:26:32.194Z,9.6
2017-11-12T08:27:34.619Z,9.6
2017-11-12T08:28:37.741Z,9.6
2017-11-12T08:29:40.165Z,9.6
2017-11-12T08:30:42.586Z,9.6
2017-11-12T08:31:45.007Z,9.6
2017-11-12T08:32:47.429Z,9.6
2017-11-12T08:33:49.851Z,9.6
2017-11-12T08:34:52.269Z,9.5
2017-11-12T08:35:54.704Z,9.5
2017-11-12T08:36:57.195Z,9.5
2017-11-12T08:37:59.604Z,9.5
2017-11-12T08:39:02.025Z,9.5
2017-11-12T08:40:04.456Z,9.5
2017-11-12T08:41:06.886Z,9.5
2017-11-12T08:42:09.314Z,9.5
2017-11-12T08:43:11.737Z,9.5
2017-11-12T08:44:14.155Z,9.5
2017-11-12T08:45:16.594Z,9.4
2017-11-12T08:46:19.036Z,9.5
2017-11-12T08:47:21.818Z,9.4
2017-11-12T08:48:24.243Z,9.4
2017-11-12T08:49:26.659Z,9.5
2017-11-12T08:50:29.080Z,9.4
2017-11-12T08:51:31.512Z,9.4
2017-11-12T08:52:33.923Z,9.4
2017-11-12T08:53:36.343Z,9.5
2017-11-12T08:54:38.786Z,9.5
2017-11-12T08:55:41.207Z,9.5
2017-11-12T08:56:43.624Z,9.5
2017-11-12T08:57:46.065Z,9.5
2017-11-12T08:58:48.484Z,9.5
2017-11-12T08:59:50.923Z,9.6
2017-11-12T09:00:54.059Z,9.6
2017-11-12T09:01:56.615Z,9.7
2017-11-12T09:02:59.033Z,9.7
2017-11-12T09:04:01.788Z,9.7
2017-11-12T09:05:05.068Z,9.7
2017-11-12T09:06:07.485Z,9.8
2017-11-12T09:07:09.909Z,9.8
2017-11-12T09:08:12.335Z,9.8
2017-11-12T09:09:14.751Z,9.8
2017-11-12T09:10:17.176Z,9.9
2017-11-12T09:11:19.611Z,10
2017-11-12T09:12:22.035Z,10
2017-11-12T09:13:24.455Z,10
2017-11-12T09:14:26.874Z,10.1
2017-11-12T09:15:29.291Z,10.2
2017-11-12T09:16:31.718Z,10.3
2017-11-12T09:17:34.141Z,10.3
2017-11-12T09:18:36.915Z,10.5
2017-11-12T09:19:39.338Z,10.5
2017-11-12T09:20:41.772Z,10.6
2017-11-12T09:21:44.187Z,10.7
2017-11-12T09:22:46.652Z,10.8
2017-11-12T09:23:49.378Z,10.9
2017-11-12T09:24:51.806Z,11
2017-11-12T09:25:54.275Z,11.1
2017-11-12T09:26:58.418Z,11.2
2017-11-12T09:28:01.968Z,11.2
2017-11-12T09:29:04.751Z,11.3
2017-11-12T09:30:07.183Z,11.3
2017-11-12T09:31:09.987Z,11.3
2017-11-12T09:32:12.408Z,11.3
2017-11-12T09:33:14.815Z,11.4
2017-11-12T09:34:17.237Z,11.4
2017-11-12T09:35:19.669Z,11.3
2017-11-12T09:36:22.350Z,11.4
2017-11-12T09:37:25.463Z,11.4
2017-11-12T09:38:27.916Z,11.4
2017-11-12T09:39:30.350Z,11.4
2017-11-12T09:40:32.773Z,11.4
2017-11-12T09:41:35.556Z,11.4
2017-11-12T09:42:38.010Z,11.4
2017-11-12T09:43:40.801Z,11.4
2017-11-12T09:44:43.646Z,11.4
2017-11-12T09:45:46.075Z,11.4
2017-11-12T09:46:48.504Z,11.4
2017-11-12T09:47:51.292Z,11.4
2017-11-12T09:48:53.734Z,11.4
2017-11-12T09:49:56.167Z,11.5
2017-11-12T09:50:58.629Z,11.5
2017-11-12T09:52:01.054Z,11.5
2017-11-12T09:53:03.486Z,11.5
2017-11-12T09:54:05.920Z,11.5
2017-11-12T09:55:08.356Z,11.5
2017-11-12T09:56:10.791Z,11.5
2017-11-12T09:57:16.723Z,11.6
2017-11-12T09:58:22.418Z,11.6
2017-11-12T09:59:25.237Z,11.7
2017-11-12T10:00:27.672Z,11.8
2017-11-12T10:01:30.093Z,11.9
2017-11-12T10:02:32.620Z,11.9
2017-11-12T10:03:40.440Z,12
2017-11-12T10:04:55.121Z,12.2
2017-11-12T10:06:06.030Z,12.2
2017-11-12T10:07:10.237Z,12.3
2017-11-12T10:08:20.775Z,12.4
2017-11-12T10:09:35.904Z,12.5
2017-11-12T10:10:56.935Z,12.7
2017-11-12T10:12:15.469Z,12.8
2017-11-12T10:13:28.961Z,12.8
2017-11-12T10:14:42.958Z,12.9
2017-11-12T10:15:53.613Z,13
2017-11-12T10:16:55.984Z,13.1
2017-11-12T10:17:58.365Z,13.1
2017-11-12T10:19:00.734Z,13.1
2017-11-12T10:20:03.121Z,13.2
2017-11-12T10:21:05.494Z,13.2
2017-11-12T10:22:07.859Z,13.2
2017-11-12T10:23:10.225Z,13.2
2017-11-12T10:24:12.605Z,13.2
2017-11-12T10:25:14.976Z,13.2
2017-11-12T10:26:17.365Z,13.2
2017-11-12T10:27:19.724Z,13.2
2017-11-12T10:28:22.131Z,13.2
2017-11-12T10:29:24.483Z,13.2
2017-11-12T10:30:26.854Z,13.2
2017-11-12T10:31:29.235Z,13.2
2017-11-12T10:32:31.607Z,13.1
2017-11-12T10:33:33.974Z,13.1
2017-11-12T10:34:36.713Z,13.1
2017-11-12T10:35:39.085Z,13.1
2017-11-12T10:36:41.452Z,13.1
2017-11-12T10:37:43.830Z,13.1
2017-11-12T10:38:46.198Z,13.1
2017-11-12T10:39:48.580Z,13.1
2017-11-12T10:40:51.306Z,13.1
2017-11-12T10:41:53.684Z,13.1
2017-11-12T10:42:56.060Z,13.1
2017-11-12T10:43:58.432Z,13.1
2017-11-12T10:45:03.358Z,13.1
2017-11-12T10:46:09.729Z,13.1
2017-11-12T10:47:12.278Z,13
2017-11-12T10:48:15.911Z,13
2017-11-12T10:49:19.650Z,12.9
2017-11-12T10:50:22.644Z,12.9
2017-11-12T10:51:27.437Z,12.8
2017-11-12T10:52:31.861Z,12.8
2017-11-12T10:53:34.763Z,12.8
2017-11-12T10:54:37.739Z,12.7
2017-11-12T10:55:40.254Z,12.7
2017-11-12T10:56:43.759Z,12.7
2017-11-12T10:57:46.563Z,12.7
2017-11-12T10:58:49.990Z,12.7
2017-11-12T10:59:52.514Z,12.7
2017-11-12T11:00:56.517Z,12.7
2017-11-12T11:01:58.976Z,12.7
2017-11-12T11:03:01.869Z,12.7
2017-11-12T11:04:05.568Z,12.7
2017-11-12T11:05:08.152Z,12.7
2017-11-12T11:06:11.152Z,12.7
2017-11-12T11:07:15.183Z,12.7
2017-11-12T11:08:17.773Z,12.7
2017-11-12T11:09:20.678Z,12.7
2017-11-12T11:10:23.091Z,12.7
2017-11-12T11:11:25.540Z,12.8
2017-11-12T11:12:28.036Z,12.7
2017-11-12T11:13:30.471Z,12.8
2017-11-12T11:14:32.938Z,12.8
2017-11-12T11:15:35.503Z,12.8
2017-11-12T11:16:38.605Z,12.8
2017-11-12T11:17:41.652Z,12.8
2017-11-12T11:18:44.851Z,12.9
2017-11-12T11:19:47.338Z,12.9
2017-11-12T11:20:49.794Z,12.9
2017-11-12T11:21:52.353Z,13
2017-11-12T11:22:54.750Z,13
2017-11-12T11:23:57.204Z,13
2017-11-12T11:24:59.628Z,13
2017-11-12T11:26:02.036Z,13.1
2017-11-12T11:27:05.245Z,13.1
2017-11-12T11:28:07.780Z,13.2
2017-11-12T11:29:10.277Z,13.2
2017-11-12T11:30:13.132Z,13.3
2017-11-12T11:31:16.265Z,13.3
2017-11-12T11:32:18.673Z,13.4
2017-11-12T11:33:21.190Z,13.4
2017-11-12T11:34:24.364Z,13.4
2017-11-12T11:35:26.804Z,13.5
2017-11-12T11:36:29.279Z,13.5
2017-11-12T11:37:32.151Z,13.5
2017-11-12T11:38:35.556Z,13.5
2017-11-12T11:39:37.989Z,13.4
2017-11-12T11:40:40.436Z,13.4
2017-11-12T11:41:44.609Z,13.4
2017-11-12T11:42:47.467Z,13.4
2017-11-12T11:43:49.950Z,13.4
2017-11-12T11:44:52.475Z,13.4
2017-11-12T11:45:55.947Z,13.5
2017-11-12T11:46:58.448Z,13.5
2017-11-12T11:48:01.510Z,13.5
2017-11-12T11:49:03.930Z,13.5
2017-11-12T11:50:06.338Z,13.5
2017-11-12T11:51:09.231Z,13.5
2017-11-12T11:52:11.918Z,13.5
2017-11-12T11:53:14.788Z,13.4
2017-11-12T11:54:17.775Z,13.4
2017-11-12T11:55:20.666Z,13.3
2017-11-12T11:56:23.684Z,13.3
2017-11-12T11:57:26.231Z,13.3
2017-11-12T11:58:29.068Z,13.2
2017-11-12T11:59:31.935Z,13.2
2017-11-12T12:00:35.278Z,13.2
2017-11-12T12:01:39.292Z,13.2
2017-11-12T12:02:42.931Z,13.2
2017-11-12T12:03:45.975Z,13.2
2017-11-12T12:04:48.472Z,13.3
2017-11-12T12:05:50.964Z,13.3
2017-11-12T12:06:53.850Z,13.3
2017-11-12T12:07:56.359Z,13.4
2017-11-12T12:08:58.977Z,13.4
2017-11-12T12:10:01.844Z,13.4
2017-11-12T12:11:06.818Z,13.5
2017-11-12T12:12:10.166Z,13.7
2017-11-12T12:13:12.869Z,13.8
2017-11-12T12:14:16.120Z,13.9
2017-11-12T12:15:19.147Z,14.1
2017-11-12T12:16:22.812Z,14.2
2017-11-12T12:17:25.967Z,14.3
2017-11-12T12:18:29.517Z,14.4
2017-11-12T12:19:31.974Z,14.4
2017-11-12T12:20:34.393Z,14.5
2017-11-12T12:21:37.968Z,14.5
2017-11-12T12:22:41.135Z,14.5
2017-11-12T12:23:43.713Z,14.5
2017-11-12T12:24:48.401Z,14.5
2017-11-12T12:25:53.066Z,14.5
2017-11-12T12:26:56.295Z,14.4
2017-11-12T12:27:59.469Z,14.4
2017-11-12T12:29:01.900Z,14.4
2017-11-12T12:30:04.337Z,14.4
2017-11-12T12:31:07.033Z,14.4
2017-11-12T12:32:09.600Z,14.4
2017-11-12T12:33:13.298Z,14.4
2017-11-12T12:34:15.960Z,14.5
2017-11-12T12:35:18.567Z,14.5
2017-11-12T12:36:21.459Z,14.6
2017-11-12T12:37:24.626Z,14.6
2017-11-12T12:38:29.169Z,14.6
2017-11-12T12:39:32.015Z,14.6
2017-11-12T12:40:34.511Z,14.6
2017-11-12T12:41:38.350Z,14.6
2017-11-12T12:42:41.402Z,14.6
2017-11-12T12:43:44.344Z,14.6
2017-11-12T12:44:47.976Z,14.6
2017-11-12T12:45:51.140Z,14.6
2017-11-12T12:46:54.318Z,14.6
2017-11-12T12:47:57.753Z,14.5
2017-11-12T12:49:00.632Z,14.5
2017-11-12T12:50:03.213Z,14.4
2017-11-12T12:51:07.664Z,14.4
2017-11-12T12:52:11.084Z,14.4
2017-11-12T12:53:14.032Z,14.3
2017-11-12T12:54:17.250Z,14.3
2017-11-12T12:55:20.148Z,14.2
2017-11-12T12:56:23.227Z,14.2
2017-11-12T12:57:26.434Z,14.2
2017-11-12T12:58:31.259Z,14.2
2017-11-12T12:59:38.068Z,14.1
2017-11-12T13:00:43.894Z,14.1
2017-11-12T13:01:47.592Z,14
2017-11-12T13:02:55.657Z,14
2017-11-12T13:04:03.378Z,14
2017-11-12T13:05:09.178Z,13.9
2017-11-12T13:06:18.320Z,13.9
2017-11-12T13:07:28.942Z,13.9
2017-11-12T13:08:39.206Z,13.8
2017-11-12T13:09:48.379Z,13.8
2017-11-12T13:10:59.563Z,13.8
2017-11-12T13:12:09.974Z,13.8
2017-11-12T13:13:20.433Z,13.8
2017-11-12T13:14:30.031Z,13.9
2017-11-12T13:15:40.763Z,13.9
2017-11-12T13:16:50.816Z,13.9
2017-11-12T13:18:00.667Z,14
2017-11-12T13:19:09.479Z,14
2017-11-12T13:20:15.785Z,14
2017-11-12T13:21:20.307Z,14.1
2017-11-12T13:22:27.622Z,14
2017-11-12T13:23:35.029Z,14
2017-11-12T13:24:43.368Z,14.1
2017-11-12T13:25:48.867Z,14.1
2017-11-12T13:26:58.460Z,14.1
2017-11-12T13:28:07.135Z,14.1
2017-11-12T13:29:15.539Z,14.1
2017-11-12T13:30:22.217Z,14.1
2017-11-12T13:31:24.650Z,14
2017-11-12T13:32:32.646Z,14
2017-11-12T13:33:44.953Z,14
2017-11-12T13:34:54.511Z,13.9
2017-11-12T13:36:01.620Z,13.8
2017-11-12T13:37:06.374Z,13.8
2017-11-12T13:38:13.852Z,13.8
2017-11-12T13:39:19.388Z,13.7
2017-11-12T13:40:21.764Z,13.6
2017-11-12T13:41:24.150Z,13.5
2017-11-12T13:42:26.519Z,13.4
2017-11-12T13:43:28.905Z,13.4
2017-11-12T13:44:31.277Z,13.3
2017-11-12T13:45:33.668Z,13.2
2017-11-12T13:46:36.380Z,13.2
2017-11-12T13:47:41.893Z,13.2
2017-11-12T13:48:56.959Z,13.1
2017-11-12T13:50:10.556Z,13.1
2017-11-12T13:51:22.694Z,13.1
2017-11-12T13:52:39.008Z,13.1
2017-11-12T13:53:53.904Z,13.1
2017-11-12T13:54:59.813Z,13.1
2017-11-12T13:56:02.194Z,13.1
2017-11-12T13:57:04.565Z,13
2017-11-12T13:58:06.927Z,13
2017-11-12T13:59:09.310Z,13
2017-11-12T14:00:11.676Z,13
2017-11-12T14:01:14.054Z,13
2017-11-12T14:02:16.428Z,13
2017-11-12T14:03:18.803Z,12.9
2017-11-12T14:04:21.168Z,12.9
2017-11-12T14:05:24.266Z,12.9
2017-11-12T14:06:26.717Z,12.8
2017-11-12T14:07:29.470Z,12.8
2017-11-12T14:08:31.877Z,12.8
2017-11-12T14:09:34.280Z,12.8
2017-11-12T14:10:36.992Z,12.8
2017-11-12T14:11:39.363Z,12.8
2017-11-12T14:12:41.749Z,12.8
2017-11-12T14:13:44.120Z,12.7
2017-11-12T14:14:46.568Z,12.8
2017-11-12T14:15:48.939Z,12.8
2017-11-12T14:16:51.304Z,12.8
2017-11-12T14:17:53.680Z,12.8
2017-11-12T14:18:56.057Z,12.8
2017-11-12T14:19:58.431Z,12.8
2017-11-12T14:21:00.813Z,12.8
2017-11-12T14:22:03.182Z,12.7
2017-11-12T14:23:05.589Z,12.7